AirNav   Air Wisconsin pilot careers
 
 895 users online  

CL35 Warner Springs Gliderport
Warner Springs, California, USA

GOING TO WARNER SPRINGS?


FAA INFORMATION EFFECTIVE 12 SEPTEMBER 2019

Location

FAA Identifier: CL35
Lat/Long: 33-17-04.2100N 116-40-10.7650W
33-17.070167N 116-40.179417W
33.2845028,-116.6696569
(estimated)
Elevation: 2880 ft. / 878 m (estimated)
Variation: 13E (1985)
From city: 2 miles E of WARNER SPRINGS, CA
Time zone: UTC -7 (UTC -8 during Standard Time)
Zip code: 92086

Gliderport Operations

Gliderport use: Private use. Permission required prior to landing
Activation date: 10/1984
Control tower: no
ARTCC: LOS ANGELES CENTER
FSS: SAN DIEGO FLIGHT SERVICE STATION
Attendance: 0900-1700
Wind indicator: yes
Segmented circle: yes
Landing fee: yes

Gliderport Communications

UNICOM: 122.8
WX AWOS-3P at L08 (18 nm E): 126.575 (760-767-3308)
WX ASOS at RNM (19 nm SW): 132.025 (760-789-0736)

Nearby radio navigation aids

VOR radial/distance  VOR name  Freq  Var
JLIr319/9.6JULIAN VORTAC114.0015E
TRMr218/32.8THERMAL VORTAC116.2013E
PSPr186/37.1PALM SPRINGS VORTAC115.5013E
OCNr071/37.6OCEANSIDE VORTAC115.3015E
HDFr125/(39.2)HOMELAND VOR113.4014E

Gliderport Services

Runway Information

Runway 8/26

Dimensions: 3500 x 70 ft. / 1067 x 21 m
Surface: asphalt
RUNWAY 8  RUNWAY 26
Latitude: 33-17.060333N33-17.080000N
Longitude: 116-40.522667W116-39.836167W
Elevation: 2873.0 ft.2914.0 ft.
Traffic pattern: leftleft
Obstructions: none200 ft. hill, 5200 ft. from runway

Gliderport Ownership and Management from official FAA records

Ownership: Privately-owned
Owner: WARNER SPRINGS RANCH RESORT, LLC
31930 HWY 79
WARNER SPRINGS, CA 92086
Phone 760-782-4200
SKY SAILING 31930 HWY 79.
Manager: BRET WILLAT
SKY SAILING 31930 HWY 79
WARNER SPRINGS, CA 92086
Phone 760-782-0404
LEASEE.

Gliderport Operational Statistics

Aircraft based on the field: 80
Single engine airplanes: 10
Gliders airplanes: 70
    

Additional Remarks

FOR CD CTC LOS ANGELES ARTCC AT 661-575-2079.

Instrument Procedures

There are no published instrument procedures at CL35.

Some nearby airports with instrument procedures:

L08 - Borrego Valley Airport (18 nm E)
KRNM - Ramona Airport (19 nm SW)
F70 - French Valley Airport (29 nm NW)
L18 - Fallbrook Community Airpark (29 nm W)
KSEE - Gillespie Field Airport (31 nm SW)
 
Loc | Ops | Rwys | IFR | FBO | Links
Com | Nav | Svcs | Stats | Notes
Area around CL35 (Warner Springs Gliderport)
 
Road maps at: MapQuest Bing Google
 
Aerial photo
WARNING: Photo may not be current or correct
Aerial photo of CL35 (Warner Springs Gliderport)
Photo by Steve Lupinacci
Photo taken 27-May-2008

Do you have a better or more recent aerial photo of Warner Springs Gliderport that you would like to share? If so, please send us your photo.

 
Sectional chart

 
Airport distance calculator
Flying to Warner Springs Gliderport? Find the distance to fly.

From to CL35

Sunrise and sunset
Times for 15-Sep-2019
 Local
(UTC-7)
 Zulu
(UTC)
Morning civil twilight06:0613:06
Sunrise06:3113:31
Sunset18:5301:53
Evening civil twilight19:1702:17

Current date and time
Zulu (UTC)  15-Sep-2019 22:56:06
Local (UTC-7)  15-Sep-2019 15:56:06
 
METAR
KL08 
18nm E 
152235Z AUTO VRB05G11KT 10SM CLR 39/08 A2975 RMK AO2
KRNM 
20nm SW 
152153Z 26012KT 10SM CLR 33/03 A2989 RMK AO2 SLP104 T03330028
KF70 
29nm NW 
152235Z AUTO 19014KT 10SM CLR 34/00 A2988 RMK AO1
KL18 
29nm W 
152235Z AUTO 24009G14KT 10SM CLR 32/10 A2986 RMK AO2
KSEE 
32nm SW 
152147Z 25011KT 10SM SKC 35/09 A2984
KCRQ 
32nm W 
152153Z VRB04KT 10SM CLR 26/18 A2985 RMK AO2 SLP104 T02610178
KTRM 
33nm NE 
152152Z AUTO 13006KT 10SM CLR 38/13 A2972 RMK AO2 SLP069 T03830133 $
KPSP 
33nm N 
152153Z 00000KT 10SM CLR 38/12 A2979 RMK AO2 SLP083 T03780117
KNFG 
33nm W 
152155Z AUTO 23007KT 10SM CLR 29/13 A2983 RMK AO2 SLP101 T02940133 $
KNKX 
34nm SW 
152155Z 30008KT 10SM SCT250 30/14 A2986 RMK AO2 SLP104 T03000144
TAF
KCRQ 
32nm W 
151720Z 1518/1618 VRB04KT P6SM BKN250 FM152000 24008KT P6SM SCT250 FM160100 VRB04KT P6SM SCT250 FM160700 VRB04KT 2SM BR BKN004 FM161600 VRB04KT 5SM HZ SCT008
KTRM 
33nm NE 
151720Z 1518/1618 14008KT P6SM SCT250 FM160200 33008KT P6SM SCT250 FM161200 VRB05KT P6SM FEW250
KPSP 
33nm N 
151720Z 1518/1618 10008KT P6SM SCT250 FM160200 33011KT P6SM SCT250 FM160600 VRB05KT P6SM FEW250
KNFG 
33nm W 
1521/1621 21010KT 9999 SKC QNH2978INS BECMG 1602/1604 VRB05KT 9999 SCT010 QNH2980INS FM160730 VRB05KT 9999 OVC007 QNH2982INS TEMPO 1609/1615 3200 BR OVC004 BECMG 1616/1618 21007KT 9999 FEW010 QNH2985INS AUTOMATED SENSOR METWATCH 1521 TIL 1615 T28/1521Z T18/1613Z
KNKX 
34nm SW 
1521/1621 28008KT 9999 FEW250 QNH2980INS FM160230 VRB05KT 9999 FEW010 QNH2982INS TEMPO 1606/1609 OVC007 TEMPO 1609/1615 6000 BR OVC005 FM161630 26007KT 9999 FEW200 QNH2987INS T35/1521Z T20/1612Z
NOTAMs
Click for the latest NOTAMs
NOTAMs are issued by the DoD/FAA and will open in a separate window not controlled by AirNav.

 

 
 

Would you like to see your business listed on this page?

 If your business provides an interesting product or service to pilots, flight crews, aircraft, or users of the Warner Springs Gliderport, you should consider listing it here.  To start the listing process, click on the button below
 
Add a business
 

Other Pages about Warner Springs Gliderport

www.agcsc.org/warner_springs_info.html
 
Update a link
 
Copyright © AirNav, LLC. All rights reserved. Privacy Policy  Contact